Time;durP1;ratioP1;P1;durP2;ratioP2;P2;SDS_P1;SDS_P2;PMS_P1;PMS_P2;Temp;Humidity;BMP_temperature;BMP_pressure;BME280_temperature;BME280_humidity;BME280_pressure;Samples;Min_cycle;Max_cycle;Signal;HPM_P1;HPM_P2
2022/05/02 00:00:11;;;;;;;1.93;1.50;;;8.90;83.10;8.80;101017.00;;;;4956220;28;87998;-69
2022/05/02 00:02:38;;;;;;;2.33;1.37;;;8.90;84.00;8.80;101022.00;;;;4954441;28;87176;-68
2022/05/02 00:05:06;;;;;;;1.17;1.07;;;8.80;84.60;8.80;101017.00;;;;4952984;28;87966;-68
2022/05/02 00:07:32;;;;;;;2.30;1.40;;;8.80;85.20;8.70;101019.00;;;;4953040;28;104468;-68
2022/05/02 00:09:57;;;;;;;3.17;1.10;;;8.80;86.60;8.60;101015.00;;;;4955485;28;88792;-68
2022/05/02 00:12:23;;;;;;;2.90;1.57;;;8.70;86.40;8.60;101014.00;;;;4943429;28;109050;-68
2022/05/02 00:14:49;;;;;;;1.43;1.30;;;8.70;87.00;8.50;101021.00;;;;4939140;28;109568;-68
2022/05/02 00:17:16;;;;;;;1.60;1.40;;;8.70;87.60;8.50;101013.00;;;;4935214;28;118262;-69
2022/05/02 00:19:42;;;;;;;1.30;1.20;;;8.60;88.20;8.40;101010.00;;;;4937394;28;116772;-69
2022/05/02 00:22:07;;;;;;;2.00;1.37;;;8.60;88.70;8.40;101017.00;;;;4953142;28;88885;-68
2022/05/02 00:24:33;;;;;;;2.87;2.10;;;8.50;89.60;8.30;101023.00;;;;4954419;28;89380;-69
2022/05/02 00:26:59;;;;;;;3.90;1.77;;;8.40;90.60;8.20;101024.00;;;;4954693;28;116909;-68
2022/05/02 00:29:25;;;;;;;5.33;1.60;;;8.50;90.80;8.10;101018.00;;;;4955097;28;116493;-68
2022/05/02 00:31:51;;;;;;;2.10;1.43;;;8.30;91.00;8.10;101012.00;;;;4955738;28;87632;-69
2022/05/02 00:34:17;;;;;;;3.03;1.77;;;8.20;91.30;8.00;101016.00;;;;4943972;28;109296;-68
2022/05/02 00:36:43;;;;;;;1.87;1.37;;;8.20;91.60;8.00;101007.00;;;;4934870;28;117996;-68
2022/05/02 00:39:09;;;;;;;1.60;1.47;;;8.10;91.90;7.90;101005.00;;;;4935609;28;88616;-68
2022/05/02 00:41:35;;;;;;;1.67;1.37;;;8.10;92.20;7.90;101006.00;;;;4935385;28;109856;-68
2022/05/02 00:44:01;;;;;;;2.43;2.07;;;8.00;92.40;7.80;101006.00;;;;4943508;28;87920;-68
2022/05/02 00:46:27;;;;;;;3.37;2.13;;;7.90;92.70;7.80;100999.00;;;;4955638;28;88175;-68
2022/05/02 00:48:54;;;;;;;2.63;1.83;;;7.90;93.00;7.70;101009.00;;;;4954916;28;88049;-69
2022/05/02 00:51:21;;;;;;;1.70;1.20;;;7.80;93.30;7.70;100996.00;;;;4956020;28;87247;-69
2022/05/02 00:54:09;;;;;;;3.50;1.67;;;7.80;94.20;7.50;100994.00;;;;4947946;28;92255;-69
2022/05/02 00:56:35;;;;;;;1.80;1.70;;;7.70;94.40;7.50;100993.00;;;;4958964;28;116252;-69
2022/05/02 00:59:01;;;;;;;2.53;1.23;;;7.60;94.70;7.40;101000.00;;;;4954195;28;89012;-68
2022/05/02 01:01:27;;;;;;;1.50;1.40;;;7.60;94.90;7.40;100995.00;;;;4954425;28;110946;-68
2022/05/02 01:03:52;;;;;;;2.30;1.97;;;7.50;95.20;7.40;100988.00;;;;4953729;28;108901;-71
2022/05/02 01:09:03;;;;;;;2.40;1.93;;;7.60;95.50;7.50;100984.00;;;;4935417;28;87843;-68
2022/05/02 01:11:29;;;;;;;3.10;2.03;;;7.60;95.60;7.50;100988.00;;;;4937987;28;88158;-69
2022/05/02 01:13:54;;;;;;;1.43;1.10;;;7.60;95.80;7.40;100997.00;;;;4939173;28;87601;-69
2022/05/02 01:16:26;;;;;;;1.47;1.33;;;7.60;96.00;7.40;100994.00;;;;4937685;28;117218;-69
2022/05/02 01:18:55;;;;;;;2.00;1.73;;;7.50;96.00;7.30;100996.00;;;;4937408;28;110700;-69
2022/05/02 01:22:03;;;;;;;1.23;1.13;;;7.50;96.30;7.20;100996.00;;;;4955238;28;88078;-69
2022/05/02 01:24:48;;;;;;;2.83;1.97;;;7.50;96.40;7.20;100987.00;;;;4955428;28;88745;-69
2022/05/02 01:27:15;;;;;;;1.97;1.87;;;7.40;96.50;7.20;101001.00;;;;4947022;28;98577;-69
2022/05/02 01:29:43;;;;;;;2.00;1.83;;;7.30;96.90;7.20;100995.00;;;;4938534;28;88038;-69
2022/05/02 01:32:15;;;;;;;2.27;1.67;;;7.30;97.10;7.10;100988.00;;;;4937909;28;87701;-69
2022/05/02 01:34:45;;;;;;;4.43;1.83;;;7.30;97.30;7.10;100995.00;;;;4940393;28;87977;-69
2022/05/02 01:37:14;;;;;;;2.60;1.47;;;7.30;97.40;7.10;100985.00;;;;4938426;28;89402;-69
2022/05/02 01:39:41;;;;;;;2.20;1.67;;;7.20;97.70;7.00;100985.00;;;;4951931;28;116948;-70
2022/05/02 01:42:10;;;;;;;2.03;1.60;;;7.10;98.10;6.90;100992.00;;;;4953868;28;87291;-69
2022/05/02 01:44:39;;;;;;;3.50;2.17;;;7.10;98.50;6.80;100981.00;;;;4948382;28;87872;-69
2022/05/02 01:47:07;;;;;;;1.97;1.87;;;7.00;98.70;6.70;100976.00;;;;4955868;28;88109;-69
2022/05/02 01:49:32;;;;;;;2.33;1.83;;;6.90;98.90;6.70;100970.00;;;;4956953;28;109747;-69
2022/05/02 01:51:58;;;;;;;1.53;1.37;;;7.20;99.10;6.60;100978.00;;;;4957288;28;99132;-69
2022/05/02 01:54:25;;;;;;;2.63;1.70;;;6.70;99.20;6.60;100981.00;;;;4949330;28;99676;-69
2022/05/02 01:56:51;;;;;;;3.50;2.03;;;7.10;99.60;6.60;100980.00;;;;4949606;28;105507;-69
2022/05/02 01:59:17;;;;;;;2.57;1.77;;;6.70;99.60;6.50;100985.00;;;;4956726;28;117483;-70
2022/05/02 02:01:42;;;;;;;2.70;2.07;;;6.70;99.90;6.50;100984.00;;;;4945746;28;109459;-69
2022/05/02 02:06:53;;;;;;;4.23;2.27;;;6.70;99.90;6.40;100971.00;;;;4934936;28;87524;-69
2022/05/02 02:09:19;;;;;;;1.33;1.23;;;6.60;99.90;6.40;100974.00;;;;4936698;28;117676;-69
2022/05/02 02:11:45;;;;;;;1.80;1.70;;;6.90;99.90;6.30;100980.00;;;;4937226;28;101755;-69
2022/05/02 02:14:11;;;;;;;2.40;1.57;;;6.60;99.90;6.30;100985.00;;;;4937529;28;93562;-69
2022/05/02 02:16:37;;;;;;;4.40;1.90;;;6.50;99.90;6.20;100982.00;;;;4936085;28;118439;-69
2022/05/02 02:19:04;;;;;;;1.83;1.30;;;6.50;99.90;6.20;100976.00;;;;4936007;28;114736;-69
2022/05/02 02:21:31;;;;;;;2.13;1.80;;;6.40;99.90;6.10;100975.00;;;;4954806;28;88013;-69
2022/05/02 02:23:57;;;;;;;2.27;1.80;;;6.30;99.90;6.10;100974.00;;;;4955306;28;87745;-69
2022/05/02 02:26:23;;;;;;;2.03;1.83;;;6.30;99.90;6.00;100967.00;;;;4957696;28;88244;-69
2022/05/02 02:28:48;;;;;;;2.77;2.20;;;6.50;99.90;6.00;100974.00;;;;4956583;28;117264;-69
2022/05/02 02:31:14;;;;;;;3.13;2.40;;;6.20;99.90;5.90;100973.00;;;;4955340;28;110722;-69
2022/05/02 02:33:40;;;;;;;3.60;1.97;;;6.10;99.90;5.90;100970.00;;;;4956372;28;108687;-69
2022/05/02 02:36:06;;;;;;;2.93;1.43;;;6.00;99.90;5.90;100970.00;;;;4955624;28;117596;-69
2022/05/02 02:38:32;;;;;;;2.50;2.00;;;6.00;99.90;5.90;100965.00;;;;4955912;28;101220;-69
2022/05/02 02:40:57;;;;;;;2.67;1.63;;;6.00;99.90;5.90;100966.00;;;;4956393;28;109973;-69
2022/05/02 02:43:23;;;;;;;2.90;1.90;;;6.00;99.90;5.90;100961.00;;;;4955614;28;109374;-69
2022/05/02 02:45:51;;;;;;;2.43;2.10;;;6.00;99.90;5.90;100946.00;;;;4956445;28;118063;-69
2022/05/02 02:48:17;;;;;;;4.87;2.60;;;6.00;99.90;5.90;100952.00;;;;4966631;28;117111;-69
2022/05/02 02:50:43;;;;;;;3.03;1.90;;;6.00;99.90;5.80;100953.00;;;;4951349;28;110386;-69
2022/05/02 02:53:08;;;;;;;4.63;2.37;;;6.40;99.90;5.80;100950.00;;;;4950924;28;111375;-69
2022/05/02 02:55:34;;;;;;;2.20;1.73;;;6.00;99.90;5.80;100952.00;;;;4938235;28;116832;-69
2022/05/02 02:58:00;;;;;;;2.67;1.97;;;6.00;99.90;5.80;100949.00;;;;4946713;28;87924;-69
2022/05/02 03:00:26;;;;;;;3.50;2.53;;;6.00;99.90;5.80;100947.00;;;;4952119;28;94575;-69
2022/05/02 03:02:52;;;;;;;3.37;2.17;;;6.00;99.90;5.80;100936.00;;;;4956047;28;88719;-69
2022/05/02 03:08:03;;;;;;;2.27;2.07;;;5.90;99.90;5.70;100948.00;;;;4945567;28;87832;-70
2022/05/02 03:10:35;;;;;;;5.67;2.27;;;5.80;99.90;5.60;100941.00;;;;4952272;28;87847;-69
2022/05/02 03:13:04;;;;;;;2.60;2.20;;;5.80;99.90;5.60;100939.00;;;;4935806;28;100509;-69
2022/05/02 03:15:30;;;;;;;2.00;1.80;;;5.80;99.90;5.60;100937.00;;;;4936337;28;88883;-69
2022/05/02 03:17:56;;;;;;;2.17;1.77;;;5.70;99.90;5.60;100942.00;;;;4936480;28;88573;-69
2022/05/02 03:20:21;;;;;;;2.93;2.40;;;5.70;99.90;5.60;100942.00;;;;4944467;28;110691;-69
2022/05/02 03:22:48;;;;;;;2.17;2.00;;;5.70;99.90;5.60;100938.00;;;;4954917;28;109450;-69
2022/05/02 03:25:14;;;;;;;2.63;1.47;;;5.70;99.90;5.60;100943.00;;;;4956899;28;88412;-69
2022/05/02 03:27:45;;;;;;;1.67;1.57;;;5.80;99.90;5.70;100936.00;;;;4954530;28;105470;-69
2022/05/02 03:30:12;;;;;;;2.17;1.97;;;6.00;99.90;5.70;100935.00;;;;4955957;28;103889;-69
2022/05/02 03:32:38;;;;;;;3.37;1.60;;;5.80;99.90;5.80;100935.00;;;;4954864;28;87898;-69
2022/05/02 03:35:05;;;;;;;3.73;2.10;;;5.90;99.90;5.80;100938.00;;;;4954103;28;88862;-69
2022/05/02 03:37:31;;;;;;;1.70;1.60;;;5.90;99.90;5.80;100933.00;;;;4950988;28;109034;-70
2022/05/02 03:39:56;;;;;;;3.97;2.20;;;6.20;99.90;5.80;100929.00;;;;4935272;28;110208;-69
2022/05/02 03:42:22;;;;;;;2.17;1.97;;;6.40;99.90;5.80;100936.00;;;;4935544;28;96429;-69
2022/05/02 03:44:48;;;;;;;3.90;2.40;;;5.90;99.90;5.90;100944.00;;;;4936602;28;87669;-69
2022/05/02 03:47:13;;;;;;;2.60;2.07;;;6.00;99.90;5.90;100933.00;;;;4947069;28;116295;-69
2022/05/02 03:49:39;;;;;;;2.07;1.77;;;6.00;99.90;5.80;100939.00;;;;4935825;28;87746;-69
2022/05/02 03:52:05;;;;;;;2.47;2.10;;;6.00;99.90;5.80;100946.00;;;;4954829;28;88852;-69
2022/05/02 03:54:31;;;;;;;2.30;1.50;;;6.00;99.90;5.80;100943.00;;;;4934638;28;108950;-69
2022/05/02 03:56:57;;;;;;;2.43;2.23;;;5.90;99.90;5.80;100940.00;;;;4947387;28;115782;-69
2022/05/02 03:59:22;;;;;;;1.97;1.83;;;6.00;99.90;5.80;100934.00;;;;4954098;28;110453;-69
2022/05/02 04:01:48;;;;;;;3.77;2.67;;;5.90;99.90;5.80;100935.00;;;;4954909;28;110182;-69
2022/05/02 04:04:14;;;;;;;2.80;2.20;;;5.90;99.90;5.70;100934.00;;;;4937482;28;117624;-69
2022/05/02 04:06:39;;;;;;;2.23;1.93;;;5.80;99.90;5.70;100930.00;;;;4934782;28;111408;-69
2022/05/02 04:09:05;;;;;;;4.60;2.30;;;5.80;99.90;5.70;100938.00;;;;4950642;28;86917;-69
2022/05/02 04:11:30;;;;;;;3.27;2.50;;;5.80;99.90;5.70;100939.00;;;;4947337;28;107824;-69
2022/05/02 04:13:56;;;;;;;2.70;2.00;;;5.80;99.90;5.70;100934.00;;;;4933531;28;115298;-70
2022/05/02 04:16:22;;;;;;;2.07;1.83;;;5.90;99.90;5.80;100946.00;;;;4934151;28;113250;-69
2022/05/02 04:18:48;;;;;;;4.30;2.33;;;5.90;99.90;5.90;100947.00;;;;4935783;28;87708;-69
2022/05/02 04:21:14;;;;;;;2.43;1.73;;;6.20;99.90;5.90;100938.00;;;;4950997;28;87611;-69
2022/05/02 04:23:39;;;;;;;2.17;1.80;;;6.00;99.90;6.00;100933.00;;;;4954990;28;88833;-69
2022/05/02 04:26:05;;;;;;;3.63;1.83;;;6.10;99.90;6.10;100935.00;;;;4954270;28;118016;-69
2022/05/02 04:28:31;;;;;;;2.70;2.23;;;6.50;99.90;6.20;100938.00;;;;4953493;28;109955;-69
2022/05/02 04:30:56;;;;;;;4.00;2.03;;;6.30;99.90;6.30;100941.00;;;;4955773;28;87698;-69
2022/05/02 04:33:23;;;;;;;2.77;1.70;;;6.30;99.90;6.40;100937.00;;;;4954481;28;106969;-69
2022/05/02 04:35:49;;;;;;;2.90;2.13;;;6.50;99.90;6.50;100936.00;;;;4943932;28;88067;-69
2022/05/02 04:38:15;;;;;;;4.43;2.33;;;6.80;99.90;6.60;100946.00;;;;4941838;28;103284;-69
2022/05/02 04:40:41;;;;;;;2.80;1.80;;;6.70;99.90;6.70;100943.00;;;;4955053;28;88813;-69
2022/05/02 04:43:06;;;;;;;2.83;2.57;;;7.20;99.90;6.80;100957.00;;;;4953694;28;118141;-69
2022/05/02 04:45:35;;;;;;;3.63;2.20;;;7.10;99.90;6.90;100943.00;;;;4953882;28;100641;-69
2022/05/02 04:48:01;;;;;;;5.70;2.00;;;7.10;99.90;7.00;100955.00;;;;4953201;28;109082;-69
2022/05/02 04:50:27;;;;;;;3.70;2.67;;;7.00;99.90;7.10;100956.00;;;;4954912;28;105561;-69
2022/05/02 04:52:53;;;;;;;4.77;2.87;;;7.10;99.90;7.20;100962.00;;;;4954642;28;88043;-69
2022/05/02 04:55:19;;;;;;;4.50;3.23;;;7.20;99.90;7.30;100959.00;;;;4954035;28;116403;-69
2022/05/02 04:57:45;;;;;;;2.93;2.43;;;7.30;99.90;7.30;100962.00;;;;4953097;28;109987;-69
2022/05/02 05:00:11;;;;;;;4.13;2.30;;;7.50;99.90;7.50;100950.00;;;;4955561;28;87899;-69
2022/05/02 05:02:37;;;;;;;3.03;1.90;;;7.50;99.90;7.60;100960.00;;;;4957060;28;108860;-69
2022/05/02 05:05:03;;;;;;;3.37;2.63;;;7.60;99.90;7.70;100954.00;;;;4954969;28;114808;-69
2022/05/02 05:07:29;;;;;;;2.40;1.80;;;7.70;99.90;7.90;100963.00;;;;4957279;28;100700;-69
2022/05/02 05:09:55;;;;;;;2.33;2.10;;;7.90;99.90;8.00;100956.00;;;;4957338;28;87872;-69
2022/05/02 05:12:59;;;;;;;3.37;2.33;;;8.00;99.90;8.30;100963.00;;;;4943118;28;117799;-69
2022/05/02 05:19:01;;;;;;;3.40;2.60;;;8.50;99.90;8.80;100962.00;;;;4940487;28;87852;-69
2022/05/02 05:22:05;;;;;;;2.23;2.00;;;8.80;99.90;9.10;100964.00;;;;4952029;28;87622;-69
2022/05/02 05:25:02;;;;;;;4.53;2.27;;;9.00;99.90;9.40;100962.00;;;;4939337;28;87410;-67
2022/05/02 05:27:43;;;;;;;3.07;2.50;;;9.30;99.90;9.60;100957.00;;;;4941043;28;89246;-67
2022/05/02 05:30:10;;;;;;;2.03;1.60;;;9.50;99.90;9.90;100961.00;;;;4938982;28;87774;-69
2022/05/02 05:33:00;;;;;;;2.40;1.70;;;9.80;99.90;10.20;100961.00;;;;4955304;28;88947;-70
2022/05/02 05:36:03;;;;;;;2.67;1.90;;;10.00;99.90;10.40;100958.00;;;;4940730;28;88059;-70
2022/05/02 05:39:06;;;;;;;3.23;2.07;;;10.30;99.90;10.60;100955.00;;;;4951392;28;89191;-68
2022/05/02 05:42:19;;;;;;;5.80;2.37;;;10.50;99.90;10.80;100955.00;;;;4932673;28;87884;-68
2022/05/02 05:44:51;;;;;;;2.30;1.73;;;10.70;99.90;11.00;100961.00;;;;4954694;28;87694;-67
2022/05/02 05:47:38;;;;;;;2.43;2.23;;;10.90;99.90;11.20;100945.00;;;;4957285;28;94878;-67
2022/05/02 05:50:29;;;;;;;5.20;2.17;;;11.00;99.90;11.30;100951.00;;;;4955606;28;89828;-68
2022/05/02 05:53:20;;;;;;;2.40;2.00;;;11.20;99.60;11.40;100958.00;;;;4938759;28;105022;-68
2022/05/02 05:56:38;;;;;;;6.60;2.43;;;11.40;99.30;11.60;100947.00;;;;4939821;28;95288;-68
2022/05/02 05:59:10;;;;;;;2.37;1.77;;;11.50;98.60;11.70;100954.00;;;;4948310;28;109043;-68
2022/05/02 06:01:49;;;;;;;3.93;2.10;;;11.60;98.20;11.90;100942.00;;;;4950340;28;88762;-68
2022/05/02 06:04:16;;;;;;;3.17;2.87;;;11.70;97.70;12.00;100957.00;;;;4969289;28;87913;-68
2022/05/02 06:06:42;;;;;;;2.13;1.87;;;11.90;97.40;12.20;100955.00;;;;4952621;28;87835;-69
2022/05/02 06:09:10;;;;;;;3.50;2.27;;;12.10;96.90;12.40;100962.00;;;;4950786;28;117362;-68
2022/05/02 06:11:40;;;;;;;1.70;1.60;;;12.20;96.40;12.60;100959.00;;;;4937261;28;88166;-68
2022/05/02 06:14:06;;;;;;;5.27;2.37;;;12.40;94.40;12.80;100953.00;;;;4937895;28;87886;-68
2022/05/02 06:19:25;;;;;;;2.50;2.10;;;12.80;93.50;13.20;100956.00;;;;4949074;28;87312;-68
2022/05/02 06:22:04;;;;;;;5.47;2.10;;;13.00;92.60;13.40;100955.00;;;;4951935;28;88609;-67
2022/05/02 06:24:37;;;;;;;6.83;2.70;;;13.20;92.00;13.60;100964.00;;;;4950155;28;87868;-69
2022/05/02 06:27:03;;;;;;;5.13;2.13;;;13.40;91.70;13.80;100967.00;;;;4955403;28;88838;-67
2022/05/02 06:29:30;;;;;;;2.47;1.33;;;13.60;90.40;14.00;100955.00;;;;4956462;28;88099;-67
2022/05/02 06:31:59;;;;;;;2.53;1.73;;;13.80;90.10;14.20;100960.00;;;;4954489;28;117988;-68
2022/05/02 06:34:40;;;;;;;4.77;1.73;;;13.80;88.80;14.50;100958.00;;;;4942271;28;88005;-68
2022/05/02 06:37:48;;;;;;;1.67;1.40;;;14.30;87.40;14.80;100974.00;;;;4945166;28;87790;-67
2022/05/02 06:40:27;;;;;;;5.13;2.15;;;14.60;85.60;15.10;100955.00;;;;4934194;28;108401;-68
2022/05/02 06:43:20;;;;;;;1.40;1.30;;;14.90;80.80;15.20;100964.00;;;;4936528;28;87756;-68
2022/05/02 06:46:07;;;;;;;2.50;1.88;;;15.10;78.20;15.50;100959.00;;;;4949215;28;94637;-68
2022/05/02 06:48:42;;;;;;;2.42;2.22;;;15.30;78.20;15.80;100957.00;;;;4956008;28;100471;-70
2022/05/02 06:51:21;;;;;;;2.55;1.25;;;15.50;74.40;15.90;100958.00;;;;4956086;28;89031;-68
2022/05/02 06:54:43;;;;;;;3.45;2.10;;;15.70;73.70;16.20;100961.00;;;;4953650;28;101768;-68
2022/05/02 06:57:15;;;;;;;1.98;1.75;;;15.90;72.40;16.50;100958.00;;;;4965646;28;87961;-68
2022/05/02 07:00:03;;;;;;;2.85;1.88;;;16.20;70.00;16.70;100964.00;;;;4956856;28;87950;-68
2022/05/02 07:03:00;;;;;;;2.25;1.42;;;16.50;69.20;17.00;100965.00;;;;4956223;28;88062;-68
2022/05/02 07:05:31;;;;;;;3.00;1.58;;;16.70;68.80;17.30;100973.00;;;;4953967;28;101374;-68
2022/05/02 07:08:05;;;;;;;8.93;1.65;;;17.00;67.10;17.50;100971.00;;;;4949518;28;101697;-68
2022/05/02 07:10:36;;;;;;;2.40;1.50;;;17.20;65.00;17.70;100975.00;;;;4956550;28;87836;-68
2022/05/02 07:13:34;;;;;;;2.58;1.45;;;17.40;63.30;17.90;100970.00;;;;4936366;28;87857;-68
2022/05/02 07:16:27;;;;;;;3.38;1.67;;;17.60;62.90;18.10;100969.00;;;;4935617;28;87898;-68
2022/05/02 07:19:10;;;;;;;2.15;1.70;;;17.80;60.00;18.20;100963.00;;;;4951236;28;102589;-68
2022/05/02 07:21:40;;;;;;;1.35;1.23;;;18.00;58.20;18.20;100962.00;;;;4956217;28;88650;-69
2022/05/02 07:25:11;;;;;;;2.35;1.58;;;18.00;58.60;18.50;100961.00;;;;4946537;28;111443;-68
2022/05/02 07:28:14;;;;;;;6.15;1.95;;;18.20;58.80;18.80;100966.00;;;;4942041;28;87746;-69
2022/05/02 07:30:40;;;;;;;1.13;1.00;;;18.50;57.40;18.90;100957.00;;;;4953829;28;87782;-69
2022/05/02 07:33:08;;;;;;;3.00;1.50;;;18.70;57.50;19.20;100959.00;;;;4955090;28;108538;-68
2022/05/02 07:35:35;;;;;;;2.20;1.67;;;18.90;56.90;19.40;100966.00;;;;4948878;28;88095;-68
2022/05/02 07:38:02;;;;;;;2.17;1.30;;;19.10;55.30;19.50;100961.00;;;;4944968;28;87815;-68
2022/05/02 07:40:29;;;;;;;3.60;1.20;;;19.30;55.20;19.60;100965.00;;;;4953574;28;87305;-68
2022/05/02 07:42:56;;;;;;;2.83;1.40;;;19.20;55.20;19.90;100965.00;;;;4950175;28;87884;-68
2022/05/02 07:45:30;;;;;;;1.80;1.27;;;19.60;55.10;20.10;100956.00;;;;4944647;28;92109;-67
2022/05/02 07:48:01;;;;;;;1.67;1.17;;;19.90;52.30;20.00;100956.00;;;;4946711;28;92404;-68
2022/05/02 07:50:27;;;;;;;2.70;1.75;;;19.90;51.70;20.00;100961.00;;;;4949382;28;87890;-69
2022/05/02 07:52:55;;;;;;;1.83;1.10;;;19.90;51.80;20.10;100959.00;;;;4951905;28;87971;-68
2022/05/02 07:55:23;;;;;;;2.85;1.75;;;19.90;51.90;20.20;100950.00;;;;4950470;28;88581;-68
2022/05/02 07:57:50;;;;;;;1.83;1.38;;;20.00;51.40;20.30;100956.00;;;;4948569;28;88044;-68
2022/05/02 08:00:17;;;;;;;2.95;1.50;;;20.10;51.30;20.50;100962.00;;;;4952669;28;87783;-68
2022/05/02 08:02:43;;;;;;;2.30;1.50;;;20.20;51.10;20.60;100960.00;;;;4951174;28;87986;-69
2022/05/02 08:05:10;;;;;;;2.20;1.42;;;20.40;50.70;20.70;100957.00;;;;4950751;28;87577;-69
2022/05/02 08:07:43;;;;;;;2.30;1.27;;;20.50;50.30;20.80;100960.00;;;;4947917;28;87758;-68
2022/05/02 08:10:25;;;;;;;2.90;1.58;;;20.60;50.30;21.00;100959.00;;;;4950960;28;87959;-68
2022/05/02 08:13:29;;;;;;;2.05;1.10;;;20.80;50.30;21.20;100951.00;;;;4949593;28;88748;-69
2022/05/02 08:16:32;;;;;;;2.50;1.60;;;20.90;50.40;21.40;100964.00;;;;4949615;28;90002;-69
2022/05/02 08:19:10;;;;;;;1.70;1.55;;;21.20;49.40;21.70;100957.00;;;;4925775;28;110348;-67
2022/05/02 08:27:15;;;;;;;1.00;0.70;;;21.40;49.10;21.80;100958.00;;;;4950236;28;87845;-68
2022/05/02 08:28:07;;;;;;;2.25;1.55;;;21.80;47.60;22.10;100959.00;;;;4948943;28;88069;-68
2022/05/02 08:30:51;;;;;;;2.92;1.42;;;21.90;47.30;22.20;100960.00;;;;4951228;28;109527;-70
2022/05/02 08:33:25;;;;;;;3.50;1.52;;;22.00;46.10;22.20;100966.00;;;;4950227;28;87294;-68
2022/05/02 08:36:03;;;;;;;2.83;1.42;;;22.00;46.40;22.30;100954.00;;;;4951159;28;87890;-73
2022/05/02 08:38:57;;;;;;;1.95;1.48;;;22.10;45.40;22.20;100956.00;;;;4945836;28;88395;-70
2022/05/02 08:41:30;;;;;;;1.35;1.08;;;22.00;45.70;22.30;100951.00;;;;4948067;28;103296;-71
2022/05/02 08:44:13;;;;;;;1.30;1.05;;;22.00;45.50;22.30;100949.00;;;;4950645;28;87968;-74
2022/05/02 08:47:15;;;;;;;1.85;1.25;;;22.10;45.70;22.50;100947.00;;;;4951594;28;87720;-72
2022/05/02 08:50:08;;;;;;;1.77;1.02;;;22.30;45.80;22.70;100944.00;;;;4949720;28;102322;-73
2022/05/02 08:53:35;;;;;;;3.45;1.08;;;22.40;44.40;22.80;100948.00;;;;4949510;28;89431;-71
2022/05/02 08:56:50;;;;;;;2.15;1.42;;;22.50;44.20;22.90;100940.00;;;;4933712;28;89111;-71
2022/05/02 09:00:02;;;;;;;6.95;1.63;;;22.70;44.00;23.10;100947.00;;;;4948738;28;87977;-73
2022/05/02 09:02:51;;;;;;;1.83;1.30;;;22.80;43.90;23.30;100948.00;;;;4950998;28;88344;-71
2022/05/02 09:05:50;;;;;;;1.35;1.13;;;22.90;43.20;23.40;100953.00;;;;4950591;28;96098;-72
2022/05/02 09:08:37;;;;;;;2.38;1.50;;;23.10;42.70;23.60;100959.00;;;;4941659;28;92979;-71
2022/05/02 09:11:39;;;;;;;1.73;1.20;;;23.30;42.50;23.70;100949.00;;;;4949777;28;91133;-71
2022/05/02 09:15:03;;;;;;;1.50;1.40;;;23.40;40.80;23.90;100950.00;;;;4947092;28;108147;-70
2022/05/02 09:17:54;;;;;;;6.88;1.65;;;23.50;41.40;24.10;100948.00;;;;4938255;28;87784;-74
2022/05/02 09:20:42;;;;;;;2.65;1.35;;;23.70;40.60;24.20;100951.00;;;;4948370;28;87542;-72
2022/05/02 09:23:37;;;;;;;2.10;1.38;;;23.80;40.50;24.20;100948.00;;;;4948417;28;87759;-70
2022/05/02 09:26:25;;;;;;;1.77;1.15;;;23.90;39.30;24.10;100941.00;;;;4950519;28;87760;-71
2022/05/02 09:29:26;;;;;;;1.73;1.58;;;23.80;38.50;24.10;100943.00;;;;4949695;28;87991;-72
2022/05/02 09:31:59;;;;;;;1.95;1.50;;;23.80;38.70;24.10;100941.00;;;;4950473;28;87172;-72
2022/05/02 09:34:46;;;;;;;2.90;1.52;;;23.80;38.60;24.20;100940.00;;;;4954222;28;87646;-72
2022/05/02 09:37:33;;;;;;;8.63;1.13;;;23.80;38.00;24.10;100931.00;;;;4951786;28;87930;-72
2022/05/02 09:40:22;;;;;;;1.52;1.10;;;23.80;37.30;23.90;100928.00;;;;4942568;28;106380;-74
2022/05/02 09:50:01;;;;;;;1.35;1.25;;;23.50;36.90;23.60;100931.00;;;;4945061;28;88248;-71
2022/05/02 09:52:40;;;;;;;2.10;1.30;;;23.30;37.00;23.60;100920.00;;;;4953106;28;101972;-74
2022/05/02 09:58:43;;;;;;;0.90;0.85;;;23.30;37.40;23.80;100917.00;;;;4946205;28;89267;-73
2022/05/02 10:01:26;;;;;;;1.80;1.33;;;23.30;38.40;23.90;100919.00;;;;4952387;28;87318;-71
2022/05/02 10:04:31;;;;;;;1.42;1.30;;;23.40;37.30;23.80;100913.00;;;;4935423;28;88786;-71
2022/05/02 10:07:06;;;;;;;2.35;1.45;;;23.40;36.90;23.80;100912.00;;;;4934192;28;88133;-72
2022/05/02 10:10:04;;;;;;;1.48;0.95;;;23.20;37.00;24.00;100898.00;;;;4947259;28;88783;-71
2022/05/02 10:12:49;;;;;;;1.52;1.42;;;23.40;37.50;24.10;100902.00;;;;4952055;28;110781;-71
2022/05/02 10:15:53;;;;;;;2.05;1.30;;;23.50;37.50;24.10;100897.00;;;;4951095;28;87844;-73
2022/05/02 10:18:34;;;;;;;3.63;1.42;;;23.60;35.90;23.70;100900.00;;;;4942462;28;87891;-71
2022/05/02 10:21:22;;;;;;;2.08;1.70;;;23.40;36.20;23.50;100907.00;;;;4952640;28;87784;-74
2022/05/02 10:24:24;;;;;;;1.23;1.10;;;23.20;36.80;23.20;100892.00;;;;4950777;28;89841;-71
2022/05/02 10:27:02;;;;;;;1.75;1.45;;;22.90;36.80;23.30;100894.00;;;;4950552;28;90485;-73
2022/05/02 10:30:04;;;;;;;1.35;1.15;;;22.80;37.90;23.70;100879.00;;;;4950371;28;102147;-71
2022/05/02 10:32:52;;;;;;;2.90;1.30;;;23.00;37.40;23.70;100884.00;;;;4951579;28;87668;-71
2022/05/02 10:35:21;;;;;;;1.60;1.50;;;23.20;37.20;24.00;100875.00;;;;4953168;28;87832;-71
2022/05/02 10:38:05;;;;;;;1.67;1.00;;;23.30;37.20;24.30;100873.00;;;;4950161;28;90154;-71
2022/05/02 10:40:42;;;;;;;2.78;1.25;;;23.60;37.10;24.50;100876.00;;;;4953251;28;87875;-71
2022/05/02 10:43:11;;;;;;;2.60;2.00;;;23.80;36.30;24.60;100876.00;;;;4949826;28;88054;-71
2022/05/02 10:45:40;;;;;;;2.75;1.20;;;24.00;36.00;24.70;100874.00;;;;4953103;28;88429;-72
2022/05/02 10:48:22;;;;;;;6.85;1.83;;;24.10;35.30;24.70;100876.00;;;;4951890;28;88192;-72
2022/05/02 10:51:19;;;;;;;2.25;1.20;;;24.10;35.50;24.80;100867.00;;;;4953107;28;87732;-72
2022/05/02 10:53:47;;;;;;;2.45;1.27;;;24.20;35.20;24.90;100867.00;;;;4949846;28;103786;-73
2022/05/02 10:56:23;;;;;;;2.20;1.40;;;24.30;34.40;25.00;100858.00;;;;4950964;28;88836;-74
2022/05/02 10:58:54;;;;;;;3.45;1.67;;;24.30;34.90;25.20;100861.00;;;;4949697;28;87850;-74
2022/05/02 11:02:03;;;;;;;1.40;1.30;;;24.50;34.90;25.50;100856.00;;;;4951909;28;87825;-71
2022/05/02 11:04:56;;;;;;;0.82;0.82;;;24.80;34.80;25.70;100854.00;;;;4949978;28;88661;-70
2022/05/02 11:07:40;;;;;;;1.58;1.42;;;25.00;33.60;25.70;100855.00;;;;4944131;28;87934;-74
2022/05/02 11:10:12;;;;;;;1.20;1.10;;;25.10;33.20;25.50;100846.00;;;;4950152;28;88082;-72
2022/05/02 11:13:18;;;;;;;1.25;1.02;;;25.00;33.40;25.70;100852.00;;;;4950610;28;88312;-74
2022/05/02 11:16:17;;;;;;;1.75;1.50;;;25.10;34.50;25.90;100850.00;;;;4952232;28;87763;-71
2022/05/02 11:22:46;;;;;;;1.73;1.02;;;25.50;33.70;26.40;100838.00;;;;4948607;28;88096;-72
2022/05/02 11:25:21;;;;;;;1.90;1.08;;;25.80;33.60;26.30;100835.00;;;;4943027;28;87169;-71
2022/05/02 11:28:06;;;;;;;1.17;1.08;;;25.70;32.90;26.30;100836.00;;;;4949766;28;87999;-73
2022/05/02 11:30:42;;;;;;;3.97;1.40;;;25.70;32.50;26.30;100834.00;;;;4952222;28;88839;-72
2022/05/02 11:33:31;;;;;;;3.95;1.48;;;25.70;32.90;26.40;100830.00;;;;4947798;28;91080;-73
2022/05/02 11:36:01;;;;;;;2.88;1.52;;;25.80;32.80;26.70;100833.00;;;;4949162;28;105148;-71
2022/05/02 11:38:29;;;;;;;2.58;1.80;;;26.00;33.10;27.00;100833.00;;;;4950391;28;88000;-74
2022/05/02 11:41:08;;;;;;;2.95;1.02;;;26.30;32.40;27.10;100821.00;;;;4950710;28;88270;-72
2022/05/02 11:43:38;;;;;;;1.85;1.42;;;26.40;31.50;26.90;100816.00;;;;4945163;28;87756;-71
2022/05/02 11:46:23;;;;;;;1.17;0.93;;;26.40;31.80;26.90;100815.00;;;;4951679;28;88177;-72
2022/05/02 11:49:33;;;;;;;1.10;1.00;;;26.30;32.00;27.00;100815.00;;;;4950089;28;87865;-71
2022/05/02 11:52:04;;;;;;;1.77;1.30;;;26.40;31.30;27.10;100815.00;;;;4908642;28;87502;-72
2022/05/02 11:54:40;;;;;;;0.98;0.85;;;26.50;31.40;27.20;100811.00;;;;4940996;28;87894;-71
2022/05/02 11:57:17;;;;;;;1.42;1.30;;;26.50;31.80;27.40;100809.00;;;;4951813;28;87741;-71
2022/05/02 12:00:11;;;;;;;1.40;1.25;;;26.70;31.40;27.90;100797.00;;;;4951215;28;88716;-72
2022/05/02 12:02:37;;;;;;;1.95;1.70;;;27.00;32.10;28.20;100803.00;;;;4951232;28;87874;-72